Arabi, Georgia
Current Conditions -  °F | °C
As of 4:55 PM on Friday 31 Oct 2014 (Local Time) from KCKF Reporting Station
Broken Clouds Broken Clouds  
Wind Chill: 72°   Ceiling: 7000
Heat Index: 72°   Visibility: 10mi
Dew Point: 38°   Wind: 10mph
Humidity: 29%   Direction: 320°NW
Pressure: 29.85"   Gusts: NA
Location:  31.83°N, 83.74°W
Report Text: KCKF 312055Z AUTO 32009KT 10SM BKN070 22/03 A2985 RMK AO2 T02220034
Loading
Personal Weather Stations






























Interactive Weather Map New forecast layout! Learn more

10-Day Weather Forecast

Advertisements
Track Severe Weather on mobile